DLH490 EDDF-KSEA
Flight info
| Callsign | DLH490 |
|---|---|
| Flight time | N/A |
| Altitude | 38000 |
| Route | MARUN2G MARUN Y152 ARPEG Z850 ABILU DCT ATPAQ DCT MALYK DCT DOROR DCT GUNPA/M078F380 DCT 66N010W 70N020W 73N040W 74N060W DCT DAPAK/N0452F380 DCT 73N080W 7130N09000W 6830N10000W 62N110W DCT YSM DCT 55N116W DCT LONRO DCT YDC DCT JAKSN GLASR3 |
| Aircraft | A343/H-SDE2E3FGHIJ4J5M1RWXY/LB1D1 |
Departure
| Time | 2026-04-16 03:53 |
|---|---|
| Airport | Frankfurt Main Airport (EDDF) |
Arrival
| Time | N/A |
|---|---|
| Airport | Seattle–Tacoma International Airport (KSEA) |
| Time | Latitude | Longitude | Altitude | Speed | Heading |
|---|---|---|---|---|---|
| 2026-04-16 03:39 | 50.04085 | 8.55677 | 361 ft | 0 kts | 160° |
| 2026-04-16 03:48 | 50.04059 | 8.55692 | 364 ft | 13 kts | 160° |
| 2026-04-16 03:48 | 50.04017 | 8.55802 | 359 ft | 16 kts | 84° |
| 2026-04-16 03:49 | 50.04066 | 8.56020 | 360 ft | 28 kts | 69° |
| 2026-04-16 03:49 | 50.04137 | 8.56311 | 361 ft | 26 kts | 70° |
| 2026-04-16 03:49 | 50.04198 | 8.56570 | 367 ft | 25 kts | 70° |
| 2026-04-16 03:49 | 50.04259 | 8.56831 | 370 ft | 26 kts | 70° |
| 2026-04-16 03:50 | 50.04319 | 8.57091 | 370 ft | 25 kts | 70° |
| 2026-04-16 03:50 | 50.04378 | 8.57336 | 369 ft | 24 kts | 69° |
| 2026-04-16 03:50 | 50.04437 | 8.57575 | 371 ft | 23 kts | 69° |
| 2026-04-16 03:50 | 50.04490 | 8.57798 | 373 ft | 22 kts | 70° |
| 2026-04-16 03:51 | 50.04546 | 8.58036 | 372 ft | 27 kts | 70° |
| 2026-04-16 03:51 | 50.04608 | 8.58296 | 378 ft | 13 kts | 69° |
| 2026-04-16 03:51 | 50.04640 | 8.58430 | 373 ft | 15 kts | 69° |
| 2026-04-16 03:51 | 50.04615 | 8.58580 | 374 ft | 14 kts | 147° |
| 2026-04-16 03:52 | 50.04510 | 8.58607 | 378 ft | 18 kts | 205° |
| 2026-04-16 03:52 | 50.04413 | 8.58330 | 373 ft | 39 kts | 246° |
| 2026-04-16 03:52 | 50.04320 | 8.57881 | 370 ft | 67 kts | 250° |
| 2026-04-16 03:52 | 50.04095 | 8.56952 | 373 ft | 114 kts | 250° |
| 2026-04-16 03:53 | 50.03771 | 8.55592 | 359 ft | 152 kts | 249° |
| 2026-04-16 03:53 | 50.03363 | 8.53909 | 511 ft | 175 kts | 249° |
| 2026-04-16 03:53 | 50.02913 | 8.52133 | 970 ft | 179 kts | 244° |
| 2026-04-16 03:53 | 50.01982 | 8.50698 | 1164 ft | 203 kts | 207° |
| 2026-04-16 03:54 | 50.00632 | 8.49803 | 1630 ft | 221 kts | 203° |
| 2026-04-16 03:54 | 49.99138 | 8.48905 | 2204 ft | 235 kts | 203° |
| 2026-04-16 03:54 | 49.97610 | 8.47975 | 3086 ft | 236 kts | 204° |
| 2026-04-16 03:54 | 49.96066 | 8.47067 | 3955 ft | 238 kts | 200° |
| 2026-04-16 03:55 | 49.94474 | 8.46300 | 4794 ft | 242 kts | 199° |
| 2026-04-16 03:55 | 49.92872 | 8.45465 | 5598 ft | 244 kts | 207° |
| 2026-04-16 03:55 | 49.91560 | 8.43832 | 6333 ft | 244 kts | 238° |
| 2026-04-16 03:55 | 49.90993 | 8.41393 | 7089 ft | 243 kts | 268° |
| 2026-04-16 03:56 | 49.91209 | 8.38801 | 7849 ft | 245 kts | 289° |
| 2026-04-16 03:56 | 49.92075 | 8.36520 | 8576 ft | 250 kts | 313° |
| 2026-04-16 03:56 | 49.93541 | 8.34935 | 9107 ft | 266 kts | 333° |
| 2026-04-16 03:56 | 49.95276 | 8.33793 | 9715 ft | 275 kts | 336° |
| 2026-04-16 03:57 | 49.97067 | 8.32682 | 10371 ft | 281 kts | 336° |
| 2026-04-16 03:57 | 49.98932 | 8.31499 | 10722 ft | 297 kts | 335° |
| 2026-04-16 03:57 | 50.00871 | 8.30245 | 10993 ft | 315 kts | 335° |
| 2026-04-16 03:57 | 50.02985 | 8.28951 | 11295 ft | 331 kts | 340° |
| 2026-04-16 03:58 | 50.05274 | 8.28437 | 11773 ft | 344 kts | 0° |
| 2026-04-16 03:58 | 50.07653 | 8.29168 | 12395 ft | 353 kts | 14° |
| 2026-04-16 03:58 | 50.10001 | 8.30380 | 13001 ft | 358 kts | 16° |
| 2026-04-16 03:58 | 50.12372 | 8.31654 | 13629 ft | 362 kts | 15° |
| 2026-04-16 03:59 | 50.14775 | 8.32936 | 14212 ft | 367 kts | 15° |
| 2026-04-16 03:59 | 50.17208 | 8.34225 | 14776 ft | 371 kts | 15° |
| 2026-04-16 03:59 | 50.19669 | 8.35525 | 15339 ft | 375 kts | 15° |
| 2026-04-16 03:59 | 50.22155 | 8.36835 | 15925 ft | 379 kts | 15° |
| 2026-04-16 04:00 | 50.24670 | 8.38160 | 16499 ft | 383 kts | 15° |
| 2026-04-16 04:00 | 50.27207 | 8.39497 | 17076 ft | 387 kts | 15° |
| 2026-04-16 04:00 | 50.29777 | 8.40853 | 17650 ft | 391 kts | 15° |
| 2026-04-16 04:00 | 50.32358 | 8.42242 | 18210 ft | 395 kts | 15° |
| 2026-04-16 04:01 | 50.34967 | 8.43673 | 18753 ft | 399 kts | 15° |
| 2026-04-16 04:01 | 50.37593 | 8.45113 | 19261 ft | 401 kts | 15° |
| 2026-04-16 04:01 | 50.40239 | 8.46564 | 19808 ft | 404 kts | 15° |
| 2026-04-16 04:01 | 50.42897 | 8.48019 | 20318 ft | 406 kts | 14° |
| 2026-04-16 04:02 | 50.45573 | 8.49486 | 20833 ft | 409 kts | 14° |
| 2026-04-16 04:02 | 50.48269 | 8.50960 | 21328 ft | 411 kts | 14° |
| 2026-04-16 04:02 | 50.51002 | 8.52304 | 21827 ft | 412 kts | 12° |
| 2026-04-16 04:02 | 50.53754 | 8.53585 | 22315 ft | 414 kts | 11° |
| 2026-04-16 04:03 | 50.56524 | 8.54884 | 22811 ft | 417 kts | 11° |
| 2026-04-16 04:03 | 50.59322 | 8.56208 | 23237 ft | 421 kts | 11° |
| 2026-04-16 04:03 | 50.62131 | 8.57547 | 23677 ft | 424 kts | 11° |
| 2026-04-16 04:03 | 50.64965 | 8.58905 | 24066 ft | 427 kts | 11° |
| 2026-04-16 04:04 | 50.67776 | 8.60255 | 24406 ft | 430 kts | 11° |
| 2026-04-16 04:04 | 50.70650 | 8.61638 | 24761 ft | 432 kts | 11° |
| 2026-04-16 04:04 | 50.73543 | 8.62937 | 25120 ft | 432 kts | 7° |
| 2026-04-16 04:04 | 50.76500 | 8.63675 | 25439 ft | 428 kts | 358° |
| 2026-04-16 04:05 | 50.79458 | 8.63642 | 25780 ft | 424 kts | 349° |
| 2026-04-16 04:05 | 50.82344 | 8.62846 | 26119 ft | 419 kts | 339° |
| 2026-04-16 04:05 | 50.85082 | 8.61331 | 26442 ft | 415 kts | 330° |
| 2026-04-16 04:05 | 50.87605 | 8.59155 | 26761 ft | 412 kts | 321° |
| 2026-04-16 04:06 | 50.89858 | 8.56389 | 27089 ft | 409 kts | 313° |
| 2026-04-16 04:06 | 50.91795 | 8.53109 | 27415 ft | 406 kts | 304° |
| 2026-04-16 04:06 | 50.93371 | 8.49405 | 27750 ft | 405 kts | 296° |
| 2026-04-16 04:06 | 50.94649 | 8.45433 | 28073 ft | 405 kts | 294° |
| 2026-04-16 04:07 | 50.96067 | 8.41546 | 28381 ft | 410 kts | 301° |
| 2026-04-16 04:07 | 50.99626 | 8.34370 | 28969 ft | 418 kts | 309° |
| 2026-04-16 04:07 | 51.01738 | 8.31164 | 29246 ft | 424 kts | 316° |
| 2026-04-16 04:08 | 51.04166 | 8.28444 | 29549 ft | 430 kts | 324° |
| 2026-04-16 04:08 | 51.06747 | 8.26002 | 29866 ft | 433 kts | 325° |
| 2026-04-16 04:08 | 51.09383 | 8.23628 | 30128 ft | 435 kts | 326° |
| 2026-04-16 04:08 | 51.12039 | 8.21292 | 30378 ft | 438 kts | 326° |
| 2026-04-16 04:09 | 51.14685 | 8.18977 | 30597 ft | 440 kts | 326° |
| 2026-04-16 04:09 | 51.17368 | 8.16620 | 30814 ft | 441 kts | 326° |
| 2026-04-16 04:09 | 51.20060 | 8.14239 | 31010 ft | 443 kts | 326° |
| 2026-04-16 04:09 | 51.22760 | 8.11835 | 31207 ft | 445 kts | 326° |
| 2026-04-16 04:10 | 51.25462 | 8.09420 | 31427 ft | 446 kts | 326° |
| 2026-04-16 04:10 | 51.28174 | 8.06987 | 31638 ft | 448 kts | 325° |
| 2026-04-16 04:10 | 51.30890 | 8.04545 | 31955 ft | 447 kts | 325° |
| 2026-04-16 04:10 | 51.33599 | 8.02108 | 32249 ft | 446 kts | 325° |
| 2026-04-16 04:11 | 51.36305 | 7.99671 | 32533 ft | 446 kts | 325° |
| 2026-04-16 04:11 | 51.39082 | 7.97423 | 32811 ft | 450 kts | 331° |
| 2026-04-16 04:11 | 51.42060 | 7.95749 | 33084 ft | 456 kts | 339° |
| 2026-04-16 04:11 | 51.45192 | 7.94757 | 33340 ft | 461 kts | 346° |
| 2026-04-16 04:12 | 51.48339 | 7.94070 | 33585 ft | 462 kts | 347° |
| 2026-04-16 04:12 | 51.51582 | 7.93474 | 33838 ft | 463 kts | 348° |
| 2026-04-16 04:12 | 51.54788 | 7.92936 | 34122 ft | 463 kts | 348° |
| 2026-04-16 04:12 | 51.57997 | 7.92413 | 34324 ft | 463 kts | 348° |
| 2026-04-16 04:13 | 51.60117 | 7.92065 | 34450 ft | 463 kts | 348° |
| 2026-04-16 04:13 | 51.63324 | 7.91531 | 34620 ft | 464 kts | 348° |
| 2026-04-16 04:13 | 51.67580 | 7.90805 | 34849 ft | 464 kts | 348° |
| 2026-04-16 04:13 | 51.70798 | 7.90247 | 35017 ft | 464 kts | 348° |
| 2026-04-16 04:14 | 51.74010 | 7.89686 | 35189 ft | 465 kts | 348° |
| 2026-04-16 04:14 | 51.77232 | 7.89120 | 35355 ft | 465 kts | 348° |
| 2026-04-16 04:14 | 51.80452 | 7.88554 | 35524 ft | 466 kts | 348° |
| 2026-04-16 04:14 | 51.82630 | 7.88170 | 35610 ft | 467 kts | 348° |
| 2026-04-16 04:15 | 51.85858 | 7.87601 | 35761 ft | 467 kts | 348° |
| 2026-04-16 04:15 | 51.89048 | 7.87038 | 35911 ft | 468 kts | 348° |
| 2026-04-16 04:15 | 51.92290 | 7.86466 | 36061 ft | 468 kts | 348° |
| 2026-04-16 04:15 | 51.95533 | 7.85893 | 36205 ft | 469 kts | 348° |
| 2026-04-16 04:16 | 51.98772 | 7.85321 | 36368 ft | 469 kts | 348° |
| 2026-04-16 04:16 | 52.02015 | 7.84746 | 36530 ft | 469 kts | 348° |
| 2026-04-16 04:16 | 52.05273 | 7.84167 | 36650 ft | 471 kts | 348° |
| 2026-04-16 04:16 | 52.08536 | 7.83587 | 36766 ft | 472 kts | 348° |
| 2026-04-16 04:17 | 52.11800 | 7.83006 | 36908 ft | 472 kts | 348° |
| 2026-04-16 04:17 | 52.15062 | 7.82425 | 37050 ft | 472 kts | 349° |
| 2026-04-16 04:17 | 52.18340 | 7.81841 | 37197 ft | 473 kts | 349° |
| 2026-04-16 04:17 | 52.21569 | 7.81264 | 37317 ft | 473 kts | 349° |
| 2026-04-16 04:18 | 52.24845 | 7.80678 | 37469 ft | 473 kts | 349° |
| 2026-04-16 04:18 | 52.28118 | 7.80091 | 37608 ft | 474 kts | 349° |
| 2026-04-16 04:18 | 52.31404 | 7.79501 | 37721 ft | 474 kts | 349° |
| 2026-04-16 04:18 | 52.34686 | 7.78911 | 37843 ft | 475 kts | 349° |
| 2026-04-16 04:19 | 52.37976 | 7.78318 | 37970 ft | 475 kts | 349° |
| 2026-04-16 04:19 | 52.41266 | 7.77725 | 38082 ft | 475 kts | 349° |
| 2026-04-16 04:19 | 52.47866 | 7.76531 | 38124 ft | 478 kts | 349° |
| 2026-04-16 04:20 | 52.54459 | 7.75338 | 38125 ft | 475 kts | 349° |
| 2026-04-16 04:20 | 52.61077 | 7.74622 | 38120 ft | 478 kts | 353° |
| 2026-04-16 04:21 | 52.67700 | 7.74340 | 38120 ft | 479 kts | 354° |
| 2026-04-16 04:21 | 52.74356 | 7.74005 | 38120 ft | 478 kts | 353° |
| 2026-04-16 04:22 | 52.81003 | 7.73579 | 38118 ft | 478 kts | 353° |
| 2026-04-16 04:22 | 52.87653 | 7.73115 | 38117 ft | 478 kts | 353° |
| 2026-04-16 04:23 | 52.94304 | 7.72647 | 38112 ft | 478 kts | 353° |
| 2026-04-16 04:23 | 53.00913 | 7.71693 | 38133 ft | 474 kts | 347° |
| 2026-04-16 04:24 | 53.07429 | 7.70036 | 38112 ft | 473 kts | 346° |
| 2026-04-16 04:24 | 53.13874 | 7.68284 | 38109 ft | 473 kts | 346° |
| 2026-04-16 04:25 | 53.20368 | 7.66502 | 38112 ft | 473 kts | 346° |
| 2026-04-16 04:25 | 53.26884 | 7.64720 | 38106 ft | 475 kts | 346° |
| 2026-04-16 04:26 | 53.33413 | 7.62938 | 38104 ft | 475 kts | 346° |
| 2026-04-16 04:26 | 53.39936 | 7.61153 | 38106 ft | 475 kts | 346° |
| 2026-04-16 04:27 | 53.46459 | 7.59363 | 38103 ft | 475 kts | 346° |
| 2026-04-16 04:27 | 53.52982 | 7.57566 | 38099 ft | 475 kts | 346° |
| 2026-04-16 04:28 | 53.59510 | 7.55761 | 38102 ft | 475 kts | 346° |
| 2026-04-16 04:28 | 53.66042 | 7.53950 | 38103 ft | 476 kts | 346° |
| 2026-04-16 04:29 | 53.72575 | 7.52133 | 38101 ft | 476 kts | 346° |
| 2026-04-16 04:29 | 53.79108 | 7.50310 | 38091 ft | 475 kts | 346° |
| 2026-04-16 04:30 | 53.85601 | 7.48493 | 38114 ft | 476 kts | 346° |
| 2026-04-16 04:30 | 53.92128 | 7.46660 | 38099 ft | 476 kts | 346° |
| 2026-04-16 04:31 | 53.98656 | 7.44822 | 38114 ft | 475 kts | 346° |
| 2026-04-16 04:31 | 54.05189 | 7.42976 | 38108 ft | 475 kts | 346° |
| 2026-04-16 04:32 | 54.11706 | 7.41129 | 38119 ft | 475 kts | 346° |
| 2026-04-16 04:32 | 54.18245 | 7.39268 | 38112 ft | 477 kts | 346° |
| 2026-04-16 04:33 | 54.24791 | 7.37401 | 38102 ft | 477 kts | 346° |
| 2026-04-16 04:33 | 54.31349 | 7.35524 | 38105 ft | 477 kts | 346° |
| 2026-04-16 04:34 | 54.37863 | 7.33655 | 38102 ft | 477 kts | 346° |
| 2026-04-16 04:34 | 54.44408 | 7.31770 | 38097 ft | 477 kts | 346° |
| 2026-04-16 04:35 | 54.50957 | 7.29877 | 38097 ft | 477 kts | 346° |
| 2026-04-16 04:35 | 54.57508 | 7.27977 | 38095 ft | 477 kts | 346° |
| 2026-04-16 04:36 | 54.64073 | 7.26068 | 38088 ft | 477 kts | 346° |
| 2026-04-16 04:36 | 54.70623 | 7.24157 | 38087 ft | 477 kts | 346° |
| 2026-04-16 04:37 | 54.77160 | 7.22243 | 38086 ft | 477 kts | 346° |
| 2026-04-16 04:37 | 54.83666 | 7.20331 | 38085 ft | 477 kts | 347° |
| 2026-04-16 04:38 | 54.90222 | 7.18400 | 38079 ft | 477 kts | 346° |